Time;durP1;ratioP1;P1;durP2;ratioP2;P2;SDS_P1;SDS_P2;PMS_P1;PMS_P2;Temp;Humidity;BMP_temperature;BMP_pressure;BME280_temperature;BME280_humidity;BME280_pressure;Samples;Min_cycle;Max_cycle;Signal;HPM_P1;HPM_P2
2021/03/08 00:00:18;;;;;;;19.95;4.20;;;6.80;99.90;;;;;;1922747;73;21098;-73
2021/03/08 00:02:46;;;;;;;16.73;4.67;;;6.80;99.90;;;;;;1922870;73;21552;-73
2021/03/08 00:05:14;;;;;;;24.35;5.22;;;6.80;99.90;;;;;;1925217;73;21098;-73
2021/03/08 00:07:44;;;;;;;16.90;4.00;;;6.70;99.90;;;;;;1918517;73;21520;-73
2021/03/08 00:10:13;;;;;;;20.68;4.37;;;6.70;99.90;;;;;;1917155;73;21793;-73
2021/03/08 00:12:43;;;;;;;17.98;4.50;;;6.60;99.90;;;;;;1922350;73;21202;-73
2021/03/08 00:15:12;;;;;;;20.25;3.75;;;6.60;99.90;;;;;;1920782;73;21070;-72
2021/03/08 00:17:41;;;;;;;24.27;4.85;;;6.60;99.90;;;;;;1923333;73;21075;-72
2021/03/08 00:20:11;;;;;;;22.75;4.72;;;6.60;99.90;;;;;;1923713;73;21124;-74
2021/03/08 00:22:40;;;;;;;20.80;4.87;;;6.60;99.90;;;;;;1921507;73;21050;-73
2021/03/08 00:25:10;;;;;;;16.37;4.53;;;6.50;99.90;;;;;;1921351;73;21120;-73
2021/03/08 00:27:37;;;;;;;18.32;4.58;;;6.40;99.90;;;;;;1922710;73;21717;-73
2021/03/08 00:30:08;;;;;;;33.10;4.87;;;6.40;99.90;;;;;;1917812;73;21117;-72
2021/03/08 00:32:36;;;;;;;23.32;4.50;;;6.40;99.90;;;;;;1911895;73;21171;-72
2021/03/08 00:35:05;;;;;;;17.87;3.80;;;6.40;99.90;;;;;;1922528;73;21073;-72
2021/03/08 00:37:32;;;;;;;19.80;4.67;;;6.30;99.90;;;;;;1924948;73;21104;-73
2021/03/08 00:40:02;;;;;;;20.52;4.60;;;6.30;99.90;;;;;;1916871;73;21134;-73
2021/03/08 00:42:29;;;;;;;14.58;4.08;;;6.30;99.90;;;;;;1924103;73;21109;-74
2021/03/08 00:44:57;;;;;;;20.05;4.05;;;6.20;99.90;;;;;;1915260;73;20998;-74
2021/03/08 00:47:25;;;;;;;19.87;4.35;;;6.20;99.90;;;;;;1918151;73;21437;-74
2021/03/08 00:49:53;;;;;;;18.32;4.65;;;6.10;99.90;;;;;;1929251;73;21042;-74
2021/03/08 00:52:20;;;;;;;19.65;5.08;;;6.00;99.90;;;;;;1920285;73;21038;-74
2021/03/08 00:54:48;;;;;;;25.25;4.87;;;6.00;99.90;;;;;;1921711;73;21113;-74
2021/03/08 00:57:15;;;;;;;16.97;4.90;;;6.00;99.90;;;;;;1918430;73;21105;-74
2021/03/08 00:59:43;;;;;;;18.07;4.28;;;5.90;99.90;;;;;;1922814;73;21457;-74
2021/03/08 01:02:11;;;;;;;17.55;4.65;;;5.90;99.90;;;;;;1927684;73;21121;-74
2021/03/08 01:04:38;;;;;;;21.00;4.58;;;5.90;99.90;;;;;;1917414;73;21141;-73
2021/03/08 01:07:06;;;;;;;15.43;4.10;;;5.90;99.90;;;;;;1919359;73;21085;-75
2021/03/08 01:09:33;;;;;;;25.50;4.75;;;5.90;99.90;;;;;;1918443;73;21117;-73
2021/03/08 01:12:01;;;;;;;19.42;4.33;;;5.90;99.90;;;;;;1916950;73;21636;-73
2021/03/08 01:14:28;;;;;;;23.15;4.50;;;5.90;99.90;;;;;;1923004;73;21201;-73
2021/03/08 01:16:56;;;;;;;16.27;4.25;;;5.80;99.90;;;;;;1919892;73;21715;-74
2021/03/08 01:19:23;;;;;;;19.92;4.35;;;5.80;99.90;;;;;;1915120;73;21222;-73
2021/03/08 01:21:51;;;;;;;14.50;4.20;;;5.80;99.90;;;;;;1924010;73;21613;-72
2021/03/08 01:24:18;;;;;;;20.23;4.45;;;5.70;99.90;;;;;;1920261;73;21050;-73
2021/03/08 01:26:46;;;;;;;18.32;4.70;;;5.70;99.90;;;;;;1918531;73;21372;-71
2021/03/08 01:29:15;;;;;;;23.80;4.75;;;5.60;99.90;;;;;;1922188;73;21179;-73
2021/03/08 01:31:42;;;;;;;19.95;4.22;;;5.70;99.90;;;;;;1921364;73;21218;-72
2021/03/08 01:34:10;;;;;;;15.55;4.20;;;5.60;99.90;;;;;;1919173;73;21214;-72
2021/03/08 01:36:38;;;;;;;14.68;4.03;;;5.50;99.90;;;;;;1923546;73;21136;-72
2021/03/08 01:39:07;;;;;;;24.60;5.15;;;5.50;99.90;;;;;;1923413;73;21050;-71
2021/03/08 01:41:34;;;;;;;14.95;4.45;;;5.50;99.90;;;;;;1920676;73;21530;-72
2021/03/08 01:44:02;;;;;;;18.62;4.20;;;5.40;99.90;;;;;;1922840;73;21523;-75
2021/03/08 01:46:29;;;;;;;17.05;4.00;;;5.40;99.90;;;;;;1916937;73;21100;-73
2021/03/08 01:48:57;;;;;;;20.30;4.72;;;5.40;99.90;;;;;;1917145;73;21630;-72
2021/03/08 01:51:24;;;;;;;19.67;5.35;;;5.40;99.90;;;;;;1915931;73;21602;-73
2021/03/08 01:53:53;;;;;;;21.68;4.83;;;5.40;99.90;;;;;;1925415;73;21211;-73
2021/03/08 01:56:21;;;;;;;19.67;5.03;;;5.30;99.90;;;;;;1917930;73;21033;-73
2021/03/08 01:58:48;;;;;;;19.42;4.40;;;5.30;99.90;;;;;;1921479;73;21202;-72
2021/03/08 02:01:16;;;;;;;15.85;4.40;;;5.30;99.90;;;;;;1921836;73;21145;-73
2021/03/08 02:03:44;;;;;;;16.27;4.25;;;5.30;99.90;;;;;;1919724;73;21519;-73
2021/03/08 02:06:11;;;;;;;22.67;4.92;;;5.30;99.90;;;;;;1921708;73;21531;-73
2021/03/08 02:08:39;;;;;;;26.77;5.22;;;5.30;99.90;;;;;;1918849;73;21615;-73
2021/03/08 02:11:06;;;;;;;15.35;4.55;;;5.20;99.90;;;;;;1918274;73;21090;-72
2021/03/08 02:13:52;;;;;;;16.67;4.62;;;5.10;99.90;;;;;;1931634;73;21133;-73
2021/03/08 02:16:22;;;;;;;22.55;4.83;;;5.20;99.90;;;;;;1923576;73;21139;-73
2021/03/08 02:19:08;;;;;;;22.73;5.58;;;5.10;99.90;;;;;;1917667;73;21093;-73
2021/03/08 02:21:58;;;;;;;19.07;4.85;;;5.10;99.90;;;;;;1917514;73;21098;-73
2021/03/08 02:24:55;;;;;;;20.77;5.12;;;5.10;99.90;;;;;;1932963;73;21573;-72
2021/03/08 02:27:51;;;;;;;24.12;4.85;;;5.00;99.90;;;;;;1918356;73;21763;-74
2021/03/08 02:30:40;;;;;;;21.50;4.80;;;4.90;99.90;;;;;;1924932;73;21563;-74
2021/03/08 02:33:10;;;;;;;18.00;4.53;;;4.90;99.90;;;;;;1922653;73;21264;-74
2021/03/08 02:35:40;;;;;;;14.53;4.55;;;4.90;99.90;;;;;;1913543;73;21053;-74
2021/03/08 02:38:11;;;;;;;14.10;4.78;;;5.00;99.90;;;;;;1932380;73;21534;-74
2021/03/08 02:40:44;;;;;;;19.45;5.17;;;5.00;99.90;;;;;;1917545;73;21070;-74
2021/03/08 02:43:18;;;;;;;17.52;5.30;;;4.90;99.90;;;;;;1925767;73;21108;-74
2021/03/08 02:45:48;;;;;;;24.05;5.05;;;4.90;99.90;;;;;;1919707;73;21085;-74
2021/03/08 02:48:16;;;;;;;16.27;4.25;;;4.90;99.90;;;;;;1917161;73;21176;-74
2021/03/08 02:50:45;;;;;;;20.88;4.53;;;4.80;99.90;;;;;;1920894;73;21109;-74
2021/03/08 02:53:15;;;;;;;14.43;3.72;;;4.80;99.90;;;;;;1923271;73;21018;-74
2021/03/08 02:55:51;;;;;;;16.62;4.28;;;4.70;99.90;;;;;;1916305;73;21101;-74
2021/03/08 02:58:22;;;;;;;16.37;4.33;;;4.70;99.90;;;;;;1918349;73;21473;-73
2021/03/08 03:00:50;;;;;;;17.15;4.08;;;4.80;99.90;;;;;;1921377;73;21155;-73
2021/03/08 03:03:20;;;;;;;15.05;4.28;;;4.80;99.90;;;;;;1918178;73;21089;-74
2021/03/08 03:05:49;;;;;;;19.60;4.70;;;4.80;99.90;;;;;;1917711;73;21069;-75
2021/03/08 03:08:20;;;;;;;12.95;3.83;;;4.70;99.90;;;;;;1922739;73;21093;-74
2021/03/08 03:10:47;;;;;;;14.45;4.40;;;4.70;99.90;;;;;;1915050;73;21947;-73
2021/03/08 03:13:15;;;;;;;14.78;3.77;;;4.70;99.90;;;;;;1919228;73;21112;-73
2021/03/08 03:15:44;;;;;;;12.93;3.85;;;4.60;99.90;;;;;;1922365;73;21109;-73
2021/03/08 03:18:13;;;;;;;15.58;3.83;;;4.60;99.90;;;;;;1924980;73;21602;-73
2021/03/08 03:20:42;;;;;;;16.70;3.62;;;4.60;99.90;;;;;;1918456;73;21200;-73
2021/03/08 03:23:10;;;;;;;13.90;3.85;;;4.50;99.90;;;;;;1918260;73;21176;-73
2021/03/08 03:25:40;;;;;;;16.65;4.40;;;4.50;99.90;;;;;;1923754;72;21636;-73
2021/03/08 03:28:08;;;;;;;14.58;4.03;;;4.60;99.90;;;;;;1913924;73;21097;-74
2021/03/08 03:30:36;;;;;;;20.10;3.72;;;4.60;99.90;;;;;;1916081;73;21060;-73
2021/03/08 03:33:04;;;;;;;20.75;4.17;;;4.60;99.90;;;;;;1913589;73;21132;-72
2021/03/08 03:35:33;;;;;;;13.25;3.77;;;4.60;99.90;;;;;;1913520;73;21117;-74
2021/03/08 03:38:02;;;;;;;17.10;4.00;;;4.60;99.90;;;;;;1919596;73;21623;-74
2021/03/08 03:40:30;;;;;;;16.32;4.17;;;4.60;99.90;;;;;;1918479;73;21157;-74
2021/03/08 03:42:57;;;;;;;15.38;4.40;;;4.60;99.90;;;;;;1916096;73;21058;-74
2021/03/08 03:45:25;;;;;;;22.60;4.17;;;4.60;99.90;;;;;;1925676;73;21065;-74
2021/03/08 03:47:53;;;;;;;15.98;4.35;;;4.60;99.90;;;;;;1915817;73;21175;-74
2021/03/08 03:50:23;;;;;;;16.65;4.20;;;4.50;99.90;;;;;;1924444;73;21586;-74
2021/03/08 03:52:51;;;;;;;16.35;3.95;;;4.50;99.90;;;;;;1921184;73;21621;-73
2021/03/08 03:55:20;;;;;;;17.65;4.00;;;4.50;99.90;;;;;;1918174;73;21105;-73
2021/03/08 03:57:51;;;;;;;19.10;4.95;;;4.40;99.90;;;;;;1912372;73;21088;-74
2021/03/08 04:00:24;;;;;;;19.05;4.67;;;4.40;99.90;;;;;;1919553;73;21111;-73
2021/03/08 04:02:54;;;;;;;17.50;4.35;;;4.40;99.90;;;;;;1918468;73;21622;-74
2021/03/08 04:05:24;;;;;;;17.45;4.60;;;4.30;99.90;;;;;;1921386;73;21111;-74
2021/03/08 04:07:54;;;;;;;18.50;4.05;;;4.40;99.90;;;;;;1921501;73;21655;-74
2021/03/08 04:10:24;;;;;;;11.70;4.25;;;4.30;99.90;;;;;;1913395;73;21096;-73
2021/03/08 04:12:54;;;;;;;22.32;4.90;;;4.20;99.90;;;;;;1917101;73;21113;-73
2021/03/08 04:15:25;;;;;;;17.27;4.83;;;4.20;99.90;;;;;;1917448;73;21107;-73
2021/03/08 04:17:54;;;;;;;16.65;4.90;;;4.20;99.90;;;;;;1919627;73;21083;-73
2021/03/08 04:20:22;;;;;;;19.48;5.00;;;4.20;99.90;;;;;;1913657;72;21176;-74
2021/03/08 04:22:55;;;;;;;17.45;4.12;;;4.20;99.90;;;;;;1914144;73;21128;-72
2021/03/08 04:25:23;;;;;;;13.45;4.05;;;4.20;99.90;;;;;;1919767;73;21201;-72
2021/03/08 04:27:52;;;;;;;13.62;3.90;;;4.20;99.90;;;;;;1915313;73;21171;-73
2021/03/08 04:30:20;;;;;;;13.80;4.35;;;4.20;99.90;;;;;;1916254;73;21058;-72
2021/03/08 04:32:50;;;;;;;11.95;4.37;;;4.20;99.90;;;;;;1922505;73;21040;-71
2021/03/08 04:35:20;;;;;;;19.57;4.30;;;4.10;99.90;;;;;;1920516;73;21087;-70
2021/03/08 04:37:48;;;;;;;14.63;4.50;;;4.10;99.90;;;;;;1913021;73;21135;-72
2021/03/08 04:40:17;;;;;;;17.92;4.47;;;4.10;99.90;;;;;;1917413;73;21109;-72
2021/03/08 04:42:45;;;;;;;16.85;4.53;;;4.00;99.90;;;;;;1914620;73;21088;-71
2021/03/08 04:45:14;;;;;;;21.93;4.95;;;4.00;99.90;;;;;;1915667;73;21099;-72
2021/03/08 04:47:44;;;;;;;18.23;4.65;;;4.00;99.90;;;;;;1920964;73;22214;-71
2021/03/08 04:50:13;;;;;;;12.00;3.92;;;4.00;99.90;;;;;;1918690;73;21054;-72
2021/03/08 04:52:49;;;;;;;13.10;4.40;;;4.00;99.90;;;;;;1915765;72;21112;-73
2021/03/08 04:55:18;;;;;;;14.95;4.47;;;4.00;99.90;;;;;;1913272;73;21169;-72
2021/03/08 04:57:46;;;;;;;16.32;4.53;;;3.90;99.90;;;;;;1918687;73;21131;-73
2021/03/08 05:00:14;;;;;;;18.25;4.83;;;3.80;99.90;;;;;;1906853;73;21135;-72
2021/03/08 05:02:43;;;;;;;17.00;4.35;;;3.80;99.90;;;;;;1911047;73;21029;-72
2021/03/08 05:05:13;;;;;;;14.63;5.05;;;3.80;99.90;;;;;;1916283;73;21077;-72
2021/03/08 05:07:45;;;;;;;10.82;4.30;;;3.90;99.90;;;;;;1920173;73;21194;-73
2021/03/08 05:10:18;;;;;;;20.30;5.42;;;3.90;99.90;;;;;;1912666;73;21263;-71
2021/03/08 05:12:47;;;;;;;15.40;4.65;;;3.90;99.90;;;;;;1914523;73;21084;-73
2021/03/08 05:15:16;;;;;;;18.70;4.62;;;3.80;99.90;;;;;;1915757;73;21193;-73
2021/03/08 05:17:44;;;;;;;12.78;4.10;;;3.80;99.90;;;;;;1914281;73;21197;-73
2021/03/08 05:20:15;;;;;;;20.45;5.08;;;3.80;99.90;;;;;;1916792;73;21052;-74
2021/03/08 05:22:43;;;;;;;16.60;5.00;;;3.80;99.90;;;;;;1916466;73;21147;-74
2021/03/08 05:25:12;;;;;;;14.20;5.05;;;3.80;99.90;;;;;;1918886;73;21625;-74
2021/03/08 05:27:42;;;;;;;14.15;4.95;;;3.70;99.90;;;;;;1915069;73;21064;-75
2021/03/08 05:30:12;;;;;;;19.77;4.97;;;3.60;99.90;;;;;;1918856;73;21126;-74
2021/03/08 05:32:58;;;;;;;19.70;5.75;;;3.60;99.90;;;;;;1913515;73;21087;-74
2021/03/08 05:35:27;;;;;;;14.65;4.60;;;3.60;99.90;;;;;;1917205;73;21153;-75
2021/03/08 05:37:56;;;;;;;17.70;5.08;;;3.60;99.90;;;;;;1918135;73;21137;-74
2021/03/08 05:40:27;;;;;;;19.30;5.80;;;3.60;99.90;;;;;;1920463;73;21120;-74
2021/03/08 05:42:58;;;;;;;15.78;4.83;;;3.50;99.90;;;;;;1915042;73;21158;-75
2021/03/08 05:45:27;;;;;;;17.05;5.28;;;3.40;99.90;;;;;;1913887;73;21747;-76
2021/03/08 05:48:16;;;;;;;19.92;5.00;;;3.40;99.90;;;;;;1920111;73;21134;-71
2021/03/08 05:51:11;;;;;;;20.97;4.97;;;3.30;99.90;;;;;;1915157;73;21088;-70
2021/03/08 05:54:04;;;;;;;22.13;5.17;;;3.30;99.90;;;;;;1914458;73;21612;-71
2021/03/08 05:56:58;;;;;;;18.82;4.92;;;3.30;99.90;;;;;;1919662;73;21079;-71
2021/03/08 05:59:53;;;;;;;18.65;4.95;;;3.30;99.90;;;;;;1916402;73;21202;-73
2021/03/08 06:02:48;;;;;;;21.62;4.85;;;3.30;99.90;;;;;;1917974;73;21079;-74
2021/03/08 06:05:44;;;;;;;19.27;4.92;;;3.20;99.90;;;;;;1918846;73;21142;-73
2021/03/08 06:08:30;;;;;;;17.48;5.00;;;3.20;99.90;;;;;;1920476;73;21539;-74
2021/03/08 06:11:03;;;;;;;18.45;4.55;;;3.20;99.90;;;;;;1914774;73;21122;-72
2021/03/08 06:13:35;;;;;;;17.82;5.22;;;3.20;99.90;;;;;;1911888;73;21103;-74
2021/03/08 06:16:05;;;;;;;18.67;4.67;;;3.10;99.90;;;;;;1914473;73;21154;-73
2021/03/08 06:18:35;;;;;;;14.70;4.87;;;3.10;99.90;;;;;;1918772;73;21177;-74
2021/03/08 06:21:03;;;;;;;21.95;4.90;;;3.20;99.90;;;;;;1915073;73;21233;-74
2021/03/08 06:23:31;;;;;;;15.58;5.37;;;3.20;99.90;;;;;;1916121;73;21029;-75
2021/03/08 06:25:59;;;;;;;15.85;4.87;;;3.20;99.90;;;;;;1918080;73;21126;-75
2021/03/08 06:28:28;;;;;;;14.83;5.03;;;3.20;99.90;;;;;;1910811;73;21099;-74
2021/03/08 06:30:56;;;;;;;13.13;5.00;;;3.20;99.90;;;;;;1917896;73;21076;-73
2021/03/08 06:33:24;;;;;;;17.35;5.20;;;3.10;99.90;;;;;;1912565;73;21545;-77
2021/03/08 06:35:53;;;;;;;16.57;4.95;;;3.10;99.90;;;;;;1915405;73;21072;-76
2021/03/08 06:38:22;;;;;;;17.23;4.97;;;3.20;99.90;;;;;;1919760;73;21115;-74
2021/03/08 06:40:49;;;;;;;11.70;4.75;;;3.10;99.90;;;;;;1914731;73;21137;-74
2021/03/08 06:43:17;;;;;;;16.62;5.42;;;3.10;99.90;;;;;;1913405;73;21041;-76
2021/03/08 06:45:44;;;;;;;18.62;5.08;;;3.20;99.90;;;;;;1919437;73;21646;-75
2021/03/08 06:48:12;;;;;;;14.20;5.08;;;3.30;99.90;;;;;;1914208;73;21533;-75
2021/03/08 06:50:40;;;;;;;15.60;5.50;;;3.30;99.90;;;;;;1918800;73;22110;-75
2021/03/08 06:53:07;;;;;;;19.05;5.20;;;3.30;99.90;;;;;;1914827;73;21117;-75
2021/03/08 06:55:35;;;;;;;16.17;5.40;;;3.20;99.90;;;;;;1920315;73;21076;-75
2021/03/08 06:58:17;;;;;;;17.67;5.03;;;3.20;99.90;;;;;;1918396;73;21529;-74
2021/03/08 07:00:45;;;;;;;15.80;5.50;;;3.30;99.90;;;;;;1918449;73;21204;-74
2021/03/08 07:03:31;;;;;;;16.75;5.30;;;3.30;99.90;;;;;;1923504;73;21551;-71
2021/03/08 07:06:13;;;;;;;14.03;5.22;;;3.40;99.90;;;;;;1913928;73;21636;-70
2021/03/08 07:08:40;;;;;;;16.70;5.13;;;3.50;99.90;;;;;;1908423;73;21210;-70
2021/03/08 07:11:22;;;;;;;14.90;5.03;;;3.60;99.90;;;;;;1917032;73;21125;-69
2021/03/08 07:13:51;;;;;;;17.73;6.00;;;3.80;99.90;;;;;;1918677;73;21093;-71
2021/03/08 07:16:18;;;;;;;21.65;5.70;;;3.80;99.90;;;;;;1922598;73;21053;-71
2021/03/08 07:18:47;;;;;;;15.35;5.00;;;3.90;99.90;;;;;;1920189;73;21569;-72
2021/03/08 07:21:22;;;;;;;13.48;5.42;;;3.90;99.90;;;;;;1913387;73;21100;-71
2021/03/08 07:23:51;;;;;;;12.58;5.12;;;3.90;99.90;;;;;;1914906;73;21081;-73
2021/03/08 07:26:21;;;;;;;25.27;5.35;;;4.10;99.90;;;;;;1918356;73;21455;-75
2021/03/08 07:29:11;;;;;;;17.12;4.97;;;4.20;99.90;;;;;;1917271;73;21057;-71
2021/03/08 07:31:47;;;;;;;14.28;4.83;;;4.30;99.90;;;;;;1919070;73;21153;-70
2021/03/08 07:34:16;;;;;;;14.38;4.72;;;4.50;99.90;;;;;;1913808;73;21543;-71
2021/03/08 07:36:46;;;;;;;18.87;6.12;;;4.70;99.90;;;;;;1914592;73;21081;-72
2021/03/08 07:39:18;;;;;;;17.10;6.33;;;4.80;99.90;;;;;;1914220;73;21140;-69
2021/03/08 07:42:04;;;;;;;11.03;5.03;;;5.00;99.90;;;;;;1918805;73;21006;-71
2021/03/08 07:44:30;;;;;;;12.63;4.10;;;5.10;99.90;;;;;;1911190;73;21100;-71
2021/03/08 07:47:15;;;;;;;14.33;3.85;;;5.10;99.90;;;;;;1920469;73;21111;-71
2021/03/08 07:49:43;;;;;;;16.40;3.85;;;5.20;99.90;;;;;;1918279;73;21192;-71
2021/03/08 07:52:13;;;;;;;11.88;3.87;;;5.40;99.90;;;;;;1914980;73;21071;-71
2021/03/08 07:55:01;;;;;;;11.22;4.35;;;5.50;99.90;;;;;;1912307;73;21154;-72
2021/03/08 07:57:30;;;;;;;13.62;3.30;;;5.60;99.90;;;;;;1922390;73;21120;-70
2021/03/08 07:59:58;;;;;;;14.60;3.67;;;5.60;99.90;;;;;;1918988;73;21117;-70
2021/03/08 08:02:25;;;;;;;15.08;4.17;;;5.70;99.90;;;;;;1918894;72;21085;-70
2021/03/08 08:04:53;;;;;;;17.90;3.80;;;5.70;99.90;;;;;;1915292;73;21081;-68
2021/03/08 08:07:26;;;;;;;11.50;3.58;;;5.90;99.90;;;;;;1920069;73;20998;-70
2021/03/08 08:09:53;;;;;;;12.93;3.22;;;6.00;99.90;;;;;;1917557;73;21740;-70
2021/03/08 08:12:23;;;;;;;9.40;2.98;;;6.10;99.90;;;;;;1914172;73;21116;-69
2021/03/08 08:14:52;;;;;;;11.20;3.02;;;6.20;99.90;;;;;;1915145;73;21050;-70
2021/03/08 08:17:22;;;;;;;10.15;3.30;;;6.20;99.90;;;;;;1913158;73;21565;-70
2021/03/08 08:19:52;;;;;;;14.73;3.98;;;6.20;99.90;;;;;;1917188;73;21109;-69
2021/03/08 08:22:24;;;;;;;8.85;3.20;;;6.30;99.90;;;;;;1914317;73;21070;-69
2021/03/08 08:24:57;;;;;;;9.25;3.20;;;6.40;99.90;;;;;;1915397;73;21237;-70
2021/03/08 08:27:26;;;;;;;11.88;3.10;;;6.50;99.90;;;;;;1915391;73;21029;-71
2021/03/08 08:29:55;;;;;;;9.03;2.95;;;6.50;99.90;;;;;;1919838;73;21111;-70
2021/03/08 08:32:23;;;;;;;8.35;3.15;;;6.60;99.90;;;;;;1916537;73;21033;-69
2021/03/08 08:34:50;;;;;;;8.75;2.75;;;6.70;99.90;;;;;;1908747;73;21518;-70
2021/03/08 08:37:25;;;;;;;8.23;2.72;;;6.70;99.80;;;;;;1915731;73;21162;-70
2021/03/08 08:39:55;;;;;;;8.10;2.65;;;6.80;99.00;;;;;;1913272;73;21092;-70
2021/03/08 08:42:25;;;;;;;8.75;2.98;;;6.70;99.60;;;;;;1916275;73;21514;-69
2021/03/08 08:44:54;;;;;;;6.60;2.17;;;6.60;99.90;;;;;;1918030;73;21042;-70
2021/03/08 08:47:34;;;;;;;9.33;2.92;;;6.80;99.40;;;;;;1918965;73;21134;-69
2021/03/08 08:50:06;;;;;;;10.48;2.60;;;6.90;98.60;;;;;;1920364;73;21158;-70
2021/03/08 08:52:51;;;;;;;9.28;3.02;;;7.00;98.70;;;;;;1915914;73;21187;-71
2021/03/08 08:55:22;;;;;;;7.30;2.40;;;7.00;99.90;;;;;;1915209;73;21099;-71
2021/03/08 08:58:27;;;;;;;11.70;2.58;;;7.00;99.30;;;;;;1912576;73;21049;-69
2021/03/08 09:01:35;;;;;;;13.65;2.70;;;7.20;99.00;;;;;;1912301;73;21185;-71
2021/03/08 09:04:03;;;;;;;9.88;3.22;;;7.30;99.00;;;;;;1885484;74;21184;-73
2021/03/08 09:06:51;;;;;;;12.55;3.37;;;7.40;98.40;;;;;;1885488;74;21099;-73
2021/03/08 09:09:24;;;;;;;9.03;2.92;;;7.50;98.20;;;;;;1901845;73;21168;-71
2021/03/08 09:11:58;;;;;;;10.32;2.67;;;7.60;98.30;;;;;;1920518;73;21094;-71
2021/03/08 09:14:34;;;;;;;9.45;2.85;;;7.50;97.60;;;;;;1916712;73;21105;-72
2021/03/08 09:17:20;;;;;;;8.10;3.30;;;7.30;98.90;;;;;;1923475;73;21222;-72
2021/03/08 09:19:50;;;;;;;9.45;2.70;;;7.50;99.00;;;;;;1917776;73;21225;-71
2021/03/08 09:22:30;;;;;;;8.70;2.60;;;7.70;97.90;;;;;;1922394;73;21077;-71
2021/03/08 09:24:59;;;;;;;14.10;3.27;;;7.80;96.50;;;;;;1915625;73;21144;-72
2021/03/08 09:27:29;;;;;;;6.75;2.33;;;7.90;95.90;;;;;;1916388;74;21555;-72
2021/03/08 09:30:18;;;;;;;5.47;2.20;;;8.10;96.20;;;;;;1925598;73;21116;-70
2021/03/08 09:33:09;;;;;;;7.03;2.10;;;8.20;94.30;;;;;;1916725;73;21201;-71
2021/03/08 09:38:28;;;;;;;9.65;2.67;;;8.50;93.90;;;;;;1962093;71;21082;-71
2021/03/08 09:41:00;;;;;;;6.92;2.40;;;8.70;93.10;;;;;;1936066;72;21563;-71
2021/03/08 09:43:31;;;;;;;11.50;2.90;;;8.60;92.60;;;;;;1931292;72;21137;-71
2021/03/08 09:46:03;;;;;;;6.58;2.42;;;8.80;92.20;;;;;;1934803;72;21050;-71
2021/03/08 09:48:34;;;;;;;8.08;2.35;;;9.00;92.10;;;;;;1933413;72;21083;-71
2021/03/08 09:51:13;;;;;;;6.97;2.17;;;9.10;91.00;;;;;;1930730;72;21606;-71
2021/03/08 09:53:43;;;;;;;7.87;2.27;;;9.30;90.50;;;;;;1890592;74;21090;-71
2021/03/08 09:56:13;;;;;;;6.87;1.90;;;9.50;90.00;;;;;;1886068;74;21062;-70
2021/03/08 09:58:42;;;;;;;9.00;2.40;;;9.70;90.90;;;;;;1888401;74;21141;-71
2021/03/08 10:01:22;;;;;;;8.38;2.58;;;9.90;90.00;;;;;;1885930;74;21162;-70
2021/03/08 10:03:50;;;;;;;8.58;1.92;;;9.80;87.20;;;;;;1894178;74;21134;-71
2021/03/08 10:06:26;;;;;;;10.32;2.40;;;9.80;85.90;;;;;;1862617;75;21116;-69
2021/03/08 10:08:54;;;;;;;6.10;2.27;;;9.90;90.00;;;;;;1855405;75;21101;-70
2021/03/08 10:11:26;;;;;;;9.33;2.58;;;10.00;89.20;;;;;;1885452;74;21593;-70
2021/03/08 10:13:55;;;;;;;9.05;2.80;;;10.10;89.70;;;;;;1894957;74;21124;-69
2021/03/08 10:16:24;;;;;;;5.35;1.62;;;10.30;89.90;;;;;;1893808;74;21571;-70
2021/03/08 10:18:53;;;;;;;5.67;2.10;;;10.40;83.70;;;;;;1891573;74;21149;-72
2021/03/08 10:21:22;;;;;;;5.40;1.75;;;10.50;83.70;;;;;;1864841;75;21179;-70
2021/03/08 10:23:50;;;;;;;5.58;1.70;;;10.70;81.80;;;;;;1897181;74;21548;-71
2021/03/08 10:26:19;;;;;;;4.47;1.50;;;10.70;76.30;;;;;;1883573;74;21172;-71
2021/03/08 10:28:51;;;;;;;5.50;1.67;;;10.70;80.10;;;;;;1885443;74;21213;-70
2021/03/08 10:31:22;;;;;;;;;;;10.80;77.50;;;;;;1887081;74;21106;-71
2021/03/08 10:33:52;;;;;;;5.25;1.75;;;11.00;77.50;;;;;;1886718;74;20166;-71
2021/03/08 10:36:22;;;;;;;3.83;1.20;;;11.20;77.60;;;;;;1894270;74;21138;-70
2021/03/08 10:38:55;;;;;;;5.95;1.90;;;11.40;75.20;;;;;;1881796;74;21162;-71
2021/03/08 10:41:25;;;;;;;6.28;1.77;;;11.40;71.80;;;;;;1893845;74;21052;-70
2021/03/08 10:43:53;;;;;;;4.85;1.30;;;11.40;73.10;;;;;;1897345;74;21164;-71
2021/03/08 10:46:21;;;;;;;3.62;1.30;;;11.50;73.80;;;;;;1860453;75;21123;-73
2021/03/08 10:48:55;;;;;;;6.60;1.50;;;11.70;69.90;;;;;;1903336;74;21114;-71
2021/03/08 10:51:23;;;;;;;4.00;1.27;;;11.90;67.50;;;;;;1900648;74;21093;-73
2021/03/08 10:54:01;;;;;;;3.02;1.30;;;11.90;66.40;;;;;;1901269;74;21149;-71
2021/03/08 10:56:30;;;;;;;5.08;1.15;;;12.00;67.10;;;;;;1893442;74;21132;-74
2021/03/08 10:58:59;;;;;;;4.22;1.15;;;12.10;66.60;;;;;;1903479;74;21165;-72
2021/03/08 11:01:29;;;;;;;3.98;1.35;;;12.30;63.60;;;;;;1899774;74;21602;-71
2021/03/08 11:03:57;;;;;;;5.03;1.10;;;12.50;60.50;;;;;;1904337;74;21065;-71
2021/03/08 11:06:25;;;;;;;3.35;1.30;;;12.70;59.30;;;;;;1901495;74;21061;-71
2021/03/08 11:08:58;;;;;;;3.15;1.15;;;12.80;59.20;;;;;;1902816;74;21140;-72
2021/03/08 11:11:29;;;;;;;2.33;1.22;;;12.60;62.20;;;;;;1905888;74;21459;-73
2021/03/08 11:14:05;;;;;;;4.78;1.20;;;12.10;62.30;;;;;;1902204;74;21137;-72
2021/03/08 11:16:35;;;;;;;7.08;1.30;;;12.10;65.40;;;;;;1901860;74;21105;-73
2021/03/08 11:19:22;;;;;;;3.05;1.20;;;12.50;62.90;;;;;;1901134;74;21138;-72
2021/03/08 11:22:09;;;;;;;5.22;1.45;;;12.90;65.10;;;;;;1901914;74;21129;-74
2021/03/08 11:24:48;;;;;;;2.33;1.10;;;13.40;63.90;;;;;;1892533;74;21090;-73
2021/03/08 11:27:23;;;;;;;8.00;1.32;;;13.70;57.90;;;;;;1895655;74;21137;-73
2021/03/08 11:30:05;;;;;;;3.02;1.05;;;14.00;57.60;;;;;;1893209;74;21106;-74
2021/03/08 11:32:34;;;;;;;3.42;1.10;;;14.20;57.40;;;;;;1879150;74;21075;-74
2021/03/08 11:35:02;;;;;;;5.40;1.95;;;14.40;57.70;;;;;;1889878;74;21211;-76
2021/03/08 11:37:31;;;;;;;3.75;1.37;;;14.60;57.10;;;;;;1897196;74;21215;-73
2021/03/08 11:40:01;;;;;;;5.22;0.80;;;14.60;55.30;;;;;;1888016;74;21251;-76
2021/03/08 11:42:29;;;;;;;4.28;1.20;;;14.70;54.30;;;;;;1889821;74;21052;-76
2021/03/08 11:44:57;;;;;;;2.45;0.80;;;14.90;53.10;;;;;;1892890;74;21159;-75
2021/03/08 11:47:25;;;;;;;3.47;1.25;;;15.00;52.90;;;;;;1897029;74;22084;-73
2021/03/08 11:49:54;;;;;;;3.55;1.25;;;14.90;53.90;;;;;;1900509;74;21288;-75
2021/03/08 11:52:21;;;;;;;4.40;1.07;;;15.30;52.90;;;;;;1892997;74;21120;-75
2021/03/08 11:54:49;;;;;;;6.33;1.30;;;15.60;53.00;;;;;;1891511;74;21087;-75
2021/03/08 11:57:16;;;;;;;3.02;1.20;;;15.60;50.50;;;;;;1899466;74;21682;-76
2021/03/08 11:59:46;;;;;;;8.85;1.12;;;15.70;49.50;;;;;;1901424;74;21549;-77
2021/03/08 12:02:13;;;;;;;2.65;1.00;;;15.80;49.40;;;;;;1889844;74;21124;-77
2021/03/08 12:04:41;;;;;;;3.10;0.88;;;16.00;50.20;;;;;;1892386;74;21581;-77
2021/03/08 12:07:08;;;;;;;3.83;1.15;;;16.10;50.70;;;;;;1892476;74;21209;-77
2021/03/08 12:09:36;;;;;;;1.77;0.93;;;16.30;49.00;;;;;;1896252;74;21125;-76
2021/03/08 12:12:03;;;;;;;5.60;0.98;;;16.40;48.00;;;;;;1889828;74;21964;-77
2021/03/08 12:14:31;;;;;;;4.25;1.12;;;16.10;45.50;;;;;;1897417;74;21086;-76
2021/03/08 12:17:00;;;;;;;4.40;1.20;;;16.20;47.10;;;;;;1898084;74;21485;-78
2021/03/08 12:19:28;;;;;;;3.05;1.15;;;16.40;43.90;;;;;;1896156;74;21446;-74
2021/03/08 12:21:56;;;;;;;4.08;1.15;;;16.70;44.40;;;;;;1896517;74;21140;-72
2021/03/08 12:24:23;;;;;;;2.10;1.00;;;16.80;44.80;;;;;;1893910;74;21136;-74
2021/03/08 12:26:51;;;;;;;3.30;1.20;;;17.30;45.30;;;;;;1893308;74;21485;-74
2021/03/08 12:29:18;;;;;;;3.50;1.00;;;17.70;44.20;;;;;;1892705;74;21153;-74
2021/03/08 12:31:46;;;;;;;2.37;0.80;;;18.00;42.80;;;;;;1889834;74;21639;-73
2021/03/08 12:34:13;;;;;;;2.05;0.95;;;18.20;41.40;;;;;;1896256;74;21447;-74
2021/03/08 12:36:41;;;;;;;1.92;0.82;;;18.30;40.60;;;;;;1893155;74;21087;-74
2021/03/08 12:39:10;;;;;;;2.17;0.90;;;18.40;37.70;;;;;;1892641;74;21130;-74
2021/03/08 12:41:37;;;;;;;2.95;0.80;;;18.10;36.60;;;;;;1887070;74;21016;-75
2021/03/08 12:44:05;;;;;;;5.03;1.07;;;18.40;36.30;;;;;;1891962;74;21133;-75
2021/03/08 12:46:33;;;;;;;3.02;0.90;;;18.50;36.30;;;;;;1900664;74;21181;-74
2021/03/08 12:49:01;;;;;;;4.08;0.90;;;18.40;35.70;;;;;;1893651;74;21177;-74
2021/03/08 12:51:28;;;;;;;4.28;0.68;;;18.10;35.40;;;;;;1893842;74;21101;-73
2021/03/08 12:53:56;;;;;;;2.22;0.80;;;18.20;36.10;;;;;;1893112;74;21578;-74
2021/03/08 12:56:23;;;;;;;2.95;0.82;;;17.40;35.40;;;;;;1891869;74;21126;-74
2021/03/08 12:58:51;;;;;;;1.95;0.90;;;17.50;37.80;;;;;;1892347;74;21138;-72
2021/03/08 13:01:18;;;;;;;3.42;1.00;;;18.20;36.70;;;;;;1894689;74;21050;-71
2021/03/08 13:03:46;;;;;;;4.25;1.07;;;18.80;35.60;;;;;;1896687;74;21122;-73
2021/03/08 13:06:13;;;;;;;2.50;0.90;;;18.50;34.50;;;;;;1895004;74;21564;-73
2021/03/08 13:08:41;;;;;;;3.35;0.70;;;18.40;36.50;;;;;;1892536;74;21663;-73
2021/03/08 13:11:08;;;;;;;4.55;0.80;;;19.00;35.90;;;;;;1894965;74;22423;-72